createdAt,value
2023-03-08T00:02:31.574Z,4.20
2023-03-08T00:06:49.639Z,3.50
2023-03-08T00:11:08.432Z,4.73
2023-03-08T00:15:27.345Z,4.57
2023-03-08T00:19:46.989Z,3.80
2023-03-08T00:24:04.957Z,3.72
2023-03-08T00:28:23.054Z,4.10
2023-03-08T00:32:46.147Z,3.33
2023-03-08T00:37:05.522Z,3.97
2023-03-08T00:41:23.633Z,4.07
2023-03-08T00:45:48.776Z,4.10
2023-03-08T00:50:15.510Z,4.00
2023-03-08T00:54:39.923Z,4.00
2023-03-08T00:59:06.197Z,5.05
2023-03-08T01:03:30.637Z,4.85
2023-03-08T01:07:56.524Z,4.82
2023-03-08T01:12:22.740Z,4.67
2023-03-08T01:16:46.574Z,5.80
2023-03-08T01:21:12.359Z,6.35
2023-03-08T01:25:38.696Z,6.13
2023-03-08T01:30:02.679Z,6.60
2023-03-08T01:34:26.605Z,6.53
2023-03-08T01:38:52.294Z,5.63
2023-03-08T01:43:29.114Z,6.78
2023-03-08T01:47:52.979Z,6.55
2023-03-08T01:52:27.172Z,7.53
2023-03-08T01:56:53.090Z,7.43
2023-03-08T02:01:21.196Z,7.57
2023-03-08T02:05:53.216Z,7.35
2023-03-08T02:10:20.128Z,7.43
2023-03-08T02:14:45.799Z,7.65
2023-03-08T02:19:17.972Z,7.43
2023-03-08T02:23:44.556Z,7.77
2023-03-08T02:28:11.288Z,7.50
2023-03-08T02:32:35.279Z,7.55
2023-03-08T02:36:59.515Z,7.70
2023-03-08T02:41:24.742Z,7.83
2023-03-08T02:45:49.140Z,7.63
2023-03-08T02:50:13.285Z,6.82
2023-03-08T02:54:37.518Z,5.47
2023-03-08T02:59:02.900Z,5.65
2023-03-08T03:03:26.932Z,6.00
2023-03-08T03:07:50.948Z,6.03
2023-03-08T03:12:17.473Z,5.20
2023-03-08T03:16:43.027Z,5.72
2023-03-08T03:21:11.681Z,5.97
2023-03-08T03:25:38.476Z,5.53
2023-03-08T03:30:05.852Z,5.80
2023-03-08T03:34:32.436Z,5.40
2023-03-08T03:38:56.898Z,5.47
2023-03-08T03:43:21.652Z,5.03
2023-03-08T03:47:47.299Z,4.82
2023-03-08T03:52:13.198Z,4.83
2023-03-08T03:56:42.618Z,4.45
2023-03-08T04:01:09.224Z,4.85
2023-03-08T04:05:33.318Z,4.95
2023-03-08T04:09:58.969Z,4.40
2023-03-08T04:14:23.524Z,4.32
2023-03-08T04:18:53.652Z,4.65
2023-03-08T04:23:19.813Z,4.50
2023-03-08T04:27:46.862Z,4.22
2023-03-08T04:32:10.897Z,4.43
2023-03-08T04:36:40.898Z,4.73
2023-03-08T04:41:11.740Z,4.90
2023-03-08T04:45:56.986Z,5.00
2023-03-08T04:50:21.118Z,4.28
2023-03-08T04:54:45.737Z,4.13
2023-03-08T04:59:17.408Z,4.10
2023-03-08T05:03:43.456Z,4.15
2023-03-08T05:08:07.883Z,4.90
2023-03-08T05:12:33.889Z,5.10
2023-03-08T05:17:01.461Z,4.75
2023-03-08T05:21:28.596Z,5.50
2023-03-08T05:25:58.070Z,5.35
2023-03-08T05:30:22.562Z,5.07
2023-03-08T05:34:48.237Z,5.03
2023-03-08T05:39:22.543Z,5.60
2023-03-08T05:43:58.543Z,5.38
2023-03-08T05:48:50.540Z,5.40
2023-03-08T05:53:43.333Z,5.50
2023-03-08T05:58:36.523Z,5.70
2023-03-08T06:03:28.850Z,6.15
2023-03-08T06:08:20.031Z,6.70
2023-03-08T06:13:11.624Z,6.32
2023-03-08T06:18:04.016Z,6.93
2023-03-08T06:22:55.285Z,6.20
2023-03-08T06:27:51.619Z,6.03
2023-03-08T06:32:51.345Z,6.43
2023-03-08T06:38:02.910Z,6.43
2023-03-08T06:42:55.633Z,6.43
2023-03-08T06:47:51.149Z,7.22
2023-03-08T06:52:42.651Z,6.70
2023-03-08T06:57:35.006Z,7.23
2023-03-08T07:02:25.964Z,6.85
2023-03-08T07:07:16.981Z,6.65
2023-03-08T07:12:08.233Z,7.00
2023-03-08T07:17:00.793Z,6.90
2023-03-08T07:21:51.524Z,7.40
2023-03-08T07:26:42.953Z,7.60
2023-03-08T07:31:36.742Z,7.70
2023-03-08T07:36:29.129Z,7.30
2023-03-08T07:41:20.183Z,6.65
2023-03-08T07:46:11.155Z,7.43
2023-03-08T07:51:05.556Z,4.70
2023-03-08T07:55:58.720Z,5.90
2023-03-08T08:00:49.891Z,4.65
2023-03-08T08:05:41.302Z,3.93
2023-03-08T08:10:32.221Z,5.82
2023-03-08T08:15:25.785Z,6.80
2023-03-08T08:20:17.704Z,6.90
2023-03-08T08:25:09.371Z,4.40
2023-03-08T08:30:00.086Z,5.53
2023-03-08T08:34:52.476Z,4.90
2023-03-08T08:39:43.268Z,4.18
2023-03-08T08:44:34.357Z,3.35
2023-03-08T08:49:25.365Z,5.78
2023-03-08T08:54:17.870Z,5.30
2023-03-08T08:59:10.059Z,3.63
2023-03-08T09:04:01.442Z,4.05
2023-03-08T09:09:22.270Z,5.70
2023-03-08T09:14:13.560Z,5.57
2023-03-08T09:19:05.766Z,3.85
2023-03-08T09:23:57.093Z,5.67
2023-03-08T09:28:49.286Z,3.20
2023-03-08T09:33:41.202Z,3.70
2023-03-08T09:38:32.678Z,6.38
2023-03-08T09:43:31.775Z,5.63
2023-03-08T09:48:27.574Z,6.88
2023-03-08T09:53:25.478Z,6.45
2023-03-08T09:58:23.457Z,6.30
2023-03-08T10:03:36.802Z,4.38
2023-03-08T10:08:33.223Z,4.75
2023-03-08T10:13:33.589Z,3.90
2023-03-08T10:18:30.946Z,7.00
2023-03-08T10:23:25.971Z,4.88
2023-03-08T10:28:19.311Z,6.95
2023-03-08T10:33:12.925Z,7.73
2023-03-08T10:38:04.617Z,7.10
2023-03-08T10:43:01.311Z,6.13
2023-03-08T10:47:57.838Z,4.77
2023-03-08T10:52:51.232Z,4.13
2023-03-08T10:57:45.861Z,7.88
2023-03-08T11:02:38.477Z,5.73
2023-03-08T11:07:31.727Z,6.93
2023-03-08T11:12:25.068Z,6.57
2023-03-08T11:17:20.807Z,4.47
2023-03-08T11:22:23.211Z,3.67
2023-03-08T11:27:27.905Z,6.72
2023-03-08T11:32:32.229Z,7.78
2023-03-08T11:37:32.985Z,8.87
2023-03-08T11:42:32.109Z,4.05
2023-03-08T11:47:41.325Z,9.18
2023-03-08T11:52:41.775Z,8.10
2023-03-08T11:57:38.200Z,6.70
2023-03-08T12:02:34.636Z,9.90
2023-03-08T12:07:29.908Z,8.30
2023-03-08T12:12:28.068Z,9.97
2023-03-08T12:17:24.658Z,7.13
2023-03-08T12:22:31.227Z,6.20
2023-03-08T12:27:28.939Z,7.13
2023-03-08T12:32:22.001Z,5.75
2023-03-08T12:37:22.607Z,8.02
2023-03-08T12:42:17.696Z,7.73
2023-03-08T12:47:22.594Z,7.28
2023-03-08T12:52:27.376Z,5.82
2023-03-08T12:57:25.663Z,7.47
2023-03-08T13:02:28.515Z,8.90
2023-03-08T13:07:27.988Z,7.97
2023-03-08T13:12:28.180Z,7.45
2023-03-08T13:17:49.830Z,8.43
2023-03-08T13:22:54.507Z,7.00
2023-03-08T13:27:52.717Z,7.47
2023-03-08T13:32:45.549Z,8.83
2023-03-08T13:37:36.213Z,8.82
2023-03-08T13:42:28.729Z,7.28
2023-03-08T13:47:30.790Z,6.57
2023-03-08T13:52:25.826Z,10.03
2023-03-08T13:57:22.029Z,9.70
2023-03-08T14:02:21.653Z,7.97
2023-03-08T14:07:21.575Z,10.00
2023-03-08T14:12:18.797Z,10.18
2023-03-08T14:17:20.256Z,11.07
2023-03-08T14:22:14.751Z,6.17
2023-03-08T14:27:08.590Z,5.18
2023-03-08T14:32:06.794Z,9.98
2023-03-08T14:37:00.540Z,13.13
2023-03-08T14:41:51.424Z,11.37
2023-03-08T14:46:45.006Z,10.60
2023-03-08T14:51:41.997Z,11.02
2023-03-08T14:56:34.634Z,11.03
2023-03-08T15:01:26.416Z,11.32
2023-03-08T15:06:21.804Z,10.05
2023-03-08T15:11:16.922Z,11.30
2023-03-08T15:16:08.657Z,11.38
2023-03-08T15:21:00.238Z,11.60
2023-03-08T15:25:52.107Z,10.48
2023-03-08T15:30:49.034Z,9.33
2023-03-08T15:36:48.396Z,10.35
2023-03-08T15:41:39.268Z,10.35
2023-03-08T15:46:32.117Z,11.10
2023-03-08T15:51:25.354Z,10.75
2023-03-08T15:56:16.728Z,10.98
2023-03-08T16:01:08.346Z,11.50
2023-03-08T16:06:00.884Z,12.20
2023-03-08T16:10:52.879Z,11.40
2023-03-08T16:15:44.142Z,7.65
2023-03-08T16:20:35.333Z,13.17
2023-03-08T16:25:27.840Z,12.95
2023-03-08T16:51:27.962Z,15.77
2023-03-08T16:56:19.480Z,14.73
2023-03-08T17:01:12.599Z,8.00
2023-03-08T17:06:08.374Z,13.50
2023-03-08T17:11:03.191Z,14.30
2023-03-08T17:30:18.293Z,14.00
2023-03-08T17:35:10.332Z,14.00
2023-03-08T17:40:01.048Z,14.68
2023-03-08T17:44:51.844Z,14.50
2023-03-08T17:49:44.157Z,16.47
2023-03-08T17:54:35.124Z,5.97
2023-03-08T17:59:26.261Z,16.27
2023-03-08T18:04:17.053Z,15.38
2023-03-08T18:09:11.300Z,15.93
2023-03-08T18:14:02.288Z,15.65
2023-03-08T18:18:53.445Z,16.52
2023-03-08T18:23:44.834Z,17.73
2023-03-08T18:28:37.345Z,15.77
2023-03-08T18:33:28.396Z,16.77
2023-03-08T18:38:18.923Z,16.60
2023-03-08T18:43:10.044Z,15.77
2023-03-08T18:48:02.639Z,16.52
2023-03-08T18:52:53.881Z,17.77
2023-03-08T18:57:45.000Z,17.27
2023-03-08T19:02:36.408Z,16.45
2023-03-08T19:07:29.193Z,16.63
2023-03-08T19:12:19.955Z,17.17
2023-03-08T19:17:23.912Z,15.93
2023-03-08T19:22:16.444Z,17.42
2023-03-08T19:27:08.815Z,14.77
2023-03-08T19:32:02.237Z,14.05
2023-03-08T19:36:56.525Z,13.48
2023-03-08T19:41:50.496Z,15.23
2023-03-08T19:46:43.858Z,14.03
2023-03-08T19:51:35.434Z,13.68
2023-03-08T19:56:28.830Z,14.93
2023-03-08T20:01:21.306Z,16.00
2023-03-08T20:06:14.810Z,13.57
2023-03-08T20:11:06.263Z,14.63
2023-03-08T20:15:56.943Z,15.27
2023-03-08T20:20:47.965Z,15.50
2023-03-08T20:25:41.033Z,14.65
2023-03-08T20:30:32.526Z,14.50
2023-03-08T20:35:24.092Z,13.90
2023-03-08T20:40:16.783Z,14.02
2023-03-08T20:52:11.911Z,14.20
2023-03-08T20:57:03.107Z,15.10
2023-03-08T21:01:54.488Z,14.43
2023-03-08T21:06:45.387Z,11.63
2023-03-08T21:11:38.508Z,14.82
2023-03-08T21:16:30.621Z,14.95
2023-03-08T21:21:24.385Z,13.30
2023-03-08T21:26:15.226Z,12.57
2023-03-08T21:31:11.472Z,12.23
2023-03-08T21:36:03.566Z,11.85
2023-03-08T21:40:54.459Z,12.50
2023-03-08T21:45:45.637Z,10.73
2023-03-08T21:50:40.788Z,11.63
2023-03-08T21:55:32.224Z,12.10
2023-03-08T22:00:23.090Z,10.73
2023-03-08T22:05:15.369Z,11.18
2023-03-08T22:10:09.761Z,8.52
2023-03-08T22:15:01.153Z,10.20
2023-03-08T22:19:53.354Z,10.48
2023-03-08T22:24:44.773Z,8.50
2023-03-08T22:29:37.050Z,9.23
2023-03-08T22:34:28.152Z,9.63
2023-03-08T22:39:19.495Z,10.07
2023-03-08T22:44:14.362Z,10.10
2023-03-08T22:49:11.570Z,10.45
2023-03-08T22:54:04.171Z,10.00
2023-03-08T22:58:56.051Z,11.05
2023-03-08T23:03:49.678Z,10.87
2023-03-08T23:08:42.389Z,10.88
2023-03-08T23:13:34.620Z,10.85
2023-03-08T23:18:25.993Z,10.03
2023-03-08T23:23:17.260Z,7.07
2023-03-08T23:28:09.539Z,11.25
2023-03-08T23:33:00.749Z,12.30
2023-03-08T23:37:51.822Z,11.75
2023-03-08T23:42:42.954Z,6.45
2023-03-08T23:47:36.224Z,12.02
2023-03-08T23:52:28.386Z,11.47
2023-03-08T23:57:19.630Z,10.25
